createdAt,value
2019-01-06T00:01:48.885Z,10.50
2019-01-06T00:04:37.842Z,12.93
2019-01-06T00:07:22.066Z,12.20
2019-01-06T00:10:29.397Z,12.77
2019-01-06T00:13:17.528Z,15.63
2019-01-06T00:16:05.952Z,17.37
2019-01-06T00:18:54.069Z,17.80
2019-01-06T00:21:42.659Z,16.17
2019-01-06T00:24:30.784Z,14.53
2019-01-06T00:27:19.159Z,15.30
2019-01-06T00:30:00.599Z,20.63
2019-01-06T00:32:48.978Z,17.77
2019-01-06T00:35:37.194Z,23.57
2019-01-06T00:38:25.540Z,11.70
2019-01-06T00:41:13.660Z,19.47
2019-01-06T00:44:02.110Z,15.30
2019-01-06T00:46:50.306Z,20.33
2019-01-06T00:49:38.690Z,18.27
2019-01-06T00:52:26.881Z,18.07
2019-01-06T00:55:15.810Z,14.00
2019-01-06T00:58:03.920Z,17.83
2019-01-06T01:00:52.196Z,12.53
2019-01-06T01:06:34.355Z,10.60
2019-01-06T01:10:00.526Z,12.40
2019-01-06T01:12:48.862Z,11.50
2019-01-06T01:15:36.997Z,9.37
2019-01-06T01:18:25.240Z,13.40
2019-01-06T01:21:13.369Z,14.73
2019-01-06T01:24:01.206Z,14.67
2019-01-06T01:26:49.365Z,13.57
2019-01-06T01:29:37.889Z,13.07
2019-01-06T01:32:44.975Z,14.80
2019-01-06T01:35:33.358Z,13.20
2019-01-06T01:38:22.600Z,16.03
2019-01-06T01:41:10.961Z,9.27
2019-01-06T01:43:59.068Z,12.80
2019-01-06T01:46:47.468Z,10.60
2019-01-06T01:49:35.589Z,12.27
2019-01-06T01:52:23.855Z,10.03
2019-01-06T01:55:11.960Z,11.43
2019-01-06T01:58:00.308Z,12.27
2019-01-06T02:00:48.416Z,13.30
2019-01-06T02:03:36.665Z,9.67
2019-01-06T02:06:24.779Z,15.10
2019-01-06T02:09:13.218Z,9.63
2019-01-06T02:12:01.341Z,11.13
2019-01-06T02:14:49.911Z,11.07
2019-01-06T02:17:34.689Z,9.07
2019-01-06T02:20:23.434Z,15.30
2019-01-06T02:23:30.526Z,9.33
2019-01-06T02:26:19.347Z,7.93
2019-01-06T02:29:07.505Z,9.17
2019-01-06T02:31:55.849Z,8.63
2019-01-06T02:34:43.970Z,14.00
2019-01-06T02:37:32.351Z,12.27
2019-01-06T02:40:21.279Z,9.33
2019-01-06T02:43:25.889Z,6.80
2019-01-06T02:46:14.212Z,8.67
2019-01-06T02:49:02.368Z,10.23
2019-01-06T02:51:50.643Z,9.67
2019-01-06T02:54:38.818Z,12.07
2019-01-06T02:57:27.112Z,9.57
2019-01-06T03:00:15.294Z,14.03
2019-01-06T03:03:22.510Z,9.90
2019-01-06T03:06:10.679Z,7.47
2019-01-06T03:08:59.019Z,8.30
2019-01-06T03:11:47.321Z,13.57
2019-01-06T03:14:35.543Z,7.43
2019-01-06T03:17:23.812Z,6.67
2019-01-06T03:20:09.906Z,10.93
2019-01-06T03:22:58.048Z,8.53
2019-01-06T03:25:47.060Z,9.00
2019-01-06T03:28:35.227Z,10.30
2019-01-06T03:31:23.678Z,8.90
2019-01-06T03:34:11.937Z,10.43
2019-01-06T03:36:55.761Z,9.57
2019-01-06T03:39:44.187Z,11.40
2019-01-06T03:42:32.613Z,7.97
2019-01-06T03:45:20.758Z,7.43
2019-01-06T03:48:09.602Z,8.77
2019-01-06T03:50:57.581Z,9.30
2019-01-06T03:56:40.033Z,7.53
2019-01-06T03:59:28.396Z,10.10
2019-01-06T04:02:16.878Z,11.00
2019-01-06T04:05:04.988Z,9.80
2019-01-06T04:07:53.434Z,9.20
2019-01-06T04:10:41.544Z,7.17
2019-01-06T04:13:30.016Z,4.50
2019-01-06T04:16:18.164Z,7.10
2019-01-06T04:19:06.451Z,7.10
2019-01-06T04:27:28.837Z,9.50
2019-01-06T04:30:16.964Z,7.57
2019-01-06T04:33:05.327Z,5.97
2019-01-06T04:36:05.336Z,5.37
2019-01-06T04:38:53.550Z,10.67
2019-01-06T04:41:41.663Z,8.57
2019-01-06T04:44:49.109Z,7.93
2019-01-06T04:47:37.221Z,9.40
2019-01-06T04:50:25.669Z,7.13
2019-01-06T04:53:13.793Z,6.10
2019-01-06T04:56:02.096Z,5.60
2019-01-06T04:58:50.218Z,7.97
2019-01-06T05:01:38.486Z,3.97
2019-01-06T05:04:26.594Z,6.23
2019-01-06T05:07:15.219Z,5.03
2019-01-06T05:10:03.324Z,8.47
2019-01-06T05:12:51.660Z,4.93
2019-01-06T05:15:40.167Z,5.87
2019-01-06T05:18:28.607Z,6.97
2019-01-06T05:21:16.724Z,5.90
2019-01-06T05:24:05.058Z,4.53
2019-01-06T05:26:53.164Z,3.43
2019-01-06T05:29:41.470Z,3.80
2019-01-06T05:32:29.571Z,4.97
2019-01-06T05:35:18.174Z,5.30
2019-01-06T05:38:06.376Z,4.73
2019-01-06T05:40:54.682Z,4.07
2019-01-06T05:43:42.787Z,4.80
2019-01-06T05:46:31.290Z,6.20
2019-01-06T05:49:19.419Z,5.57
2019-01-06T05:52:07.863Z,5.03
2019-01-06T05:54:58.258Z,3.60
2019-01-06T05:57:46.685Z,7.23
2019-01-06T06:00:34.828Z,3.53
2019-01-06T06:03:23.276Z,5.30
2019-01-06T06:06:30.363Z,2.33
2019-01-06T06:09:18.836Z,4.77
2019-01-06T06:12:06.983Z,5.13
2019-01-06T06:14:55.240Z,5.60
2019-01-06T06:17:50.550Z,4.70
2019-01-06T06:20:38.906Z,4.93
2019-01-06T06:26:22.346Z,6.23
2019-01-06T06:29:10.456Z,4.07
2019-01-06T06:31:50.151Z,4.83
2019-01-06T06:34:38.259Z,4.27
2019-01-06T06:37:26.574Z,5.10
2019-01-06T06:40:14.872Z,8.17
2019-01-06T06:43:03.091Z,4.47
2019-01-06T06:45:51.272Z,5.97
2019-01-06T06:48:31.508Z,4.20
2019-01-06T06:51:19.635Z,3.10
2019-01-06T06:54:08.006Z,4.00
2019-01-06T06:56:56.191Z,4.03
2019-01-06T06:59:44.503Z,3.00
2019-01-06T07:03:00.546Z,5.00
2019-01-06T07:05:48.807Z,8.23
2019-01-06T07:08:37.341Z,4.27
2019-01-06T07:11:25.607Z,6.23
2019-01-06T07:14:13.747Z,5.63
2019-01-06T07:17:40.115Z,7.23
2019-01-06T07:20:28.299Z,4.70
2019-01-06T07:23:16.657Z,7.37
2019-01-06T07:26:04.796Z,8.67
2019-01-06T07:28:53.234Z,9.07
2019-01-06T07:31:41.321Z,6.13
2019-01-06T07:34:29.708Z,6.80
2019-01-06T07:37:17.827Z,10.63
2019-01-06T07:40:06.168Z,10.40
2019-01-06T07:42:54.406Z,7.90
2019-01-06T07:45:57.287Z,5.77
2019-01-06T07:48:45.396Z,9.67
2019-01-06T07:51:33.727Z,5.93
2019-01-06T07:54:22.015Z,8.83
2019-01-06T07:57:10.393Z,7.97
2019-01-06T07:59:58.486Z,7.87
2019-01-06T08:02:46.740Z,7.30
2019-01-06T08:05:34.844Z,7.30
2019-01-06T08:08:23.081Z,3.73
2019-01-06T08:11:11.197Z,9.43
2019-01-06T08:13:59.511Z,9.27
2019-01-06T08:16:47.887Z,9.43
2019-01-06T08:19:36.212Z,6.87
2019-01-06T08:22:24.327Z,8.67
2019-01-06T08:25:12.778Z,7.27
2019-01-06T08:28:00.900Z,7.03
2019-01-06T08:30:49.232Z,7.07
2019-01-06T08:33:37.352Z,6.83
2019-01-06T08:36:21.738Z,8.03
2019-01-06T08:39:09.847Z,10.00
2019-01-06T08:41:58.219Z,7.37
2019-01-06T08:44:40.131Z,10.27
2019-01-06T08:47:28.647Z,10.30
2019-01-06T08:50:16.764Z,7.50
2019-01-06T08:53:05.109Z,6.47
2019-01-06T08:55:53.288Z,7.33
2019-01-06T08:58:41.651Z,8.73
2019-01-06T09:01:29.747Z,3.77
2019-01-06T09:04:18.140Z,6.00
2019-01-06T09:07:06.260Z,6.43
2019-01-06T09:09:54.630Z,7.13
2019-01-06T09:12:45.184Z,8.80
2019-01-06T09:15:32.743Z,9.30
2019-01-06T09:18:20.953Z,6.93
2019-01-06T09:21:09.215Z,6.60
2019-01-06T09:23:57.325Z,8.20
2019-01-06T09:26:45.598Z,8.80
2019-01-06T09:29:33.708Z,8.60
2019-01-06T09:32:21.957Z,7.77
2019-01-06T09:35:11.642Z,9.17
2019-01-06T09:38:00.085Z,5.87
2019-01-06T09:41:07.279Z,10.40
2019-01-06T09:43:55.538Z,6.17
2019-01-06T09:46:43.749Z,8.17
2019-01-06T09:49:31.983Z,8.00
2019-01-06T09:52:20.101Z,7.77
2019-01-06T09:55:08.548Z,8.80
2019-01-06T09:57:56.726Z,8.60
2019-01-06T10:03:28.224Z,4.73
2019-01-06T10:06:16.490Z,6.60
2019-01-06T10:09:04.772Z,8.20
2019-01-06T10:11:52.886Z,9.73
2019-01-06T10:14:41.228Z,11.37
2019-01-06T10:17:29.667Z,6.70
2019-01-06T10:20:17.915Z,7.67
2019-01-06T10:23:00.278Z,7.20
2019-01-06T10:25:48.792Z,10.00
2019-01-06T10:28:36.920Z,7.63
2019-01-06T10:31:25.168Z,7.53
2019-01-06T10:34:13.291Z,7.43
2019-01-06T10:37:01.539Z,9.07
2019-01-06T10:39:49.719Z,8.70
2019-01-06T10:42:38.048Z,6.87
2019-01-06T10:45:26.177Z,9.53
2019-01-06T10:48:33.534Z,7.10
2019-01-06T10:51:21.703Z,7.50
2019-01-06T10:54:10.084Z,7.30
2019-01-06T10:56:58.220Z,7.60
2019-01-06T10:59:46.574Z,7.60
2019-01-06T11:02:34.668Z,9.00
2019-01-06T11:05:21.782Z,8.40
2019-01-06T11:08:09.903Z,8.00
2019-01-06T11:10:58.775Z,9.17
2019-01-06T11:13:47.252Z,7.90
2019-01-06T11:16:38.471Z,8.97
2019-01-06T11:19:45.612Z,7.73
2019-01-06T11:22:33.924Z,8.97
2019-01-06T11:25:22.086Z,11.80
2019-01-06T11:28:10.500Z,9.97
2019-01-06T11:33:52.928Z,6.13
2019-01-06T11:36:41.149Z,8.53
2019-01-06T11:39:23.603Z,7.00
2019-01-06T11:42:11.722Z,7.07
2019-01-06T11:45:00.029Z,6.30
2019-01-06T11:47:48.789Z,6.63
2019-01-06T11:50:37.198Z,5.33
2019-01-06T11:53:24.674Z,5.40
2019-01-06T11:56:15.302Z,7.07
2019-01-06T11:59:24.103Z,7.57
2019-01-06T12:02:12.438Z,7.93
2019-01-06T12:05:00.546Z,6.07
2019-01-06T12:07:48.865Z,7.77
2019-01-06T12:10:37.034Z,4.97
2019-01-06T12:13:25.339Z,5.40
2019-01-06T12:16:13.451Z,5.33
2019-01-06T12:19:02.521Z,5.10
2019-01-06T12:21:50.632Z,6.33
2019-01-06T12:24:57.948Z,5.70
2019-01-06T12:27:46.090Z,5.57
2019-01-06T12:30:34.433Z,5.13
2019-01-06T12:33:22.544Z,5.33
2019-01-06T12:36:10.903Z,5.53
2019-01-06T12:38:59.019Z,3.77
2019-01-06T12:41:47.246Z,5.93
2019-01-06T12:44:35.354Z,6.43
2019-01-06T12:47:23.619Z,4.77
2019-01-06T12:50:11.744Z,5.73
2019-01-06T12:53:01.277Z,5.30
2019-01-06T12:55:49.207Z,5.00
2019-01-06T12:58:38.177Z,5.43
2019-01-06T13:01:26.306Z,6.57
2019-01-06T13:04:14.596Z,5.17
2019-01-06T13:07:02.707Z,5.57
2019-01-06T13:09:50.960Z,5.97
2019-01-06T13:12:39.076Z,6.23
2019-01-06T13:15:27.365Z,5.17
2019-01-06T13:18:15.470Z,4.97
2019-01-06T13:20:57.636Z,6.60
2019-01-06T13:23:45.837Z,6.37
2019-01-06T13:26:34.023Z,7.90
2019-01-06T13:29:22.304Z,6.33
2019-01-06T13:32:10.235Z,6.37
2019-01-06T13:34:58.431Z,7.47
2019-01-06T13:37:43.822Z,5.63
2019-01-06T13:40:32.131Z,5.90
2019-01-06T13:43:20.348Z,5.93
2019-01-06T13:46:10.830Z,6.63
2019-01-06T13:48:59.033Z,6.17
2019-01-06T13:51:47.315Z,3.07
2019-01-06T13:54:35.585Z,5.33
2019-01-06T13:57:23.828Z,7.23
2019-01-06T14:00:12.057Z,4.70
2019-01-06T14:03:00.337Z,6.03
2019-01-06T14:05:48.502Z,6.80
2019-01-06T14:08:36.783Z,6.63
2019-01-06T14:11:24.963Z,4.67
2019-01-06T14:14:13.182Z,6.93
2019-01-06T14:17:01.312Z,6.47
2019-01-06T14:19:49.620Z,6.47
2019-01-06T14:22:37.709Z,6.13
2019-01-06T14:25:26.014Z,8.07
2019-01-06T14:28:14.246Z,5.40
2019-01-06T14:31:02.444Z,4.43
2019-01-06T14:33:52.704Z,7.03
2019-01-06T14:36:40.889Z,5.43
2019-01-06T14:39:29.255Z,6.97
2019-01-06T14:42:17.619Z,5.97
2019-01-06T14:45:05.795Z,4.80
2019-01-06T14:47:54.108Z,6.43
2019-01-06T14:50:42.273Z,5.57
2019-01-06T14:53:49.545Z,5.73
2019-01-06T14:56:37.789Z,4.17
2019-01-06T14:59:26.091Z,5.70
2019-01-06T15:02:14.243Z,5.33
2019-01-06T15:05:03.241Z,5.70
2019-01-06T15:07:51.396Z,4.67
2019-01-06T15:10:39.603Z,5.73
2019-01-06T15:13:27.826Z,6.43
2019-01-06T15:16:16.092Z,5.70
2019-01-06T15:19:04.254Z,5.20
2019-01-06T15:22:11.604Z,6.60
2019-01-06T15:24:59.787Z,5.07
2019-01-06T15:30:46.868Z,5.40
2019-01-06T15:33:34.981Z,6.53
2019-01-06T15:36:23.308Z,5.37
2019-01-06T15:39:11.434Z,5.50
2019-01-06T15:41:59.874Z,3.57
2019-01-06T15:44:50.010Z,5.63
2019-01-06T15:47:38.321Z,5.13
2019-01-06T15:50:27.195Z,6.60
2019-01-06T15:53:34.894Z,5.97
2019-01-06T15:56:23.017Z,7.13
2019-01-06T15:59:11.516Z,5.60
2019-01-06T16:01:59.629Z,4.30
2019-01-06T16:07:28.796Z,6.03
2019-01-06T16:10:16.904Z,6.47
2019-01-06T16:13:05.246Z,5.17
2019-01-06T16:15:53.381Z,5.57
2019-01-06T16:18:37.758Z,5.63
2019-01-06T16:21:46.486Z,4.63
2019-01-06T16:24:35.098Z,4.47
2019-01-06T16:27:23.691Z,5.93
2019-01-06T16:30:11.962Z,5.67
2019-01-06T16:33:00.063Z,4.33
2019-01-06T16:35:48.498Z,4.43
2019-01-06T16:38:36.607Z,6.20
2019-01-06T16:41:25.289Z,4.33
2019-01-06T16:44:13.416Z,3.77
2019-01-06T16:47:01.730Z,6.57
2019-01-06T16:49:49.853Z,4.33
2019-01-06T16:55:14.736Z,6.07
2019-01-06T16:58:02.839Z,6.00
2019-01-06T17:00:51.319Z,5.23
2019-01-06T17:03:32.927Z,4.70
2019-01-06T17:06:21.550Z,5.07
2019-01-06T17:09:21.923Z,5.37
2019-01-06T17:12:10.224Z,4.83
2019-01-06T17:14:58.592Z,4.57
2019-01-06T17:17:46.938Z,5.37
2019-01-06T17:20:35.119Z,5.33
2019-01-06T17:23:23.490Z,3.60
2019-01-06T17:26:11.736Z,4.40
2019-01-06T17:29:00.114Z,4.80
2019-01-06T17:31:41.413Z,4.60
2019-01-06T17:34:30.051Z,5.57
2019-01-06T17:37:18.721Z,5.47
2019-01-06T17:40:07.138Z,5.60
2019-01-06T17:42:55.283Z,5.37
2019-01-06T17:45:44.050Z,5.20
2019-01-06T17:48:32.185Z,5.30
2019-01-06T17:51:20.554Z,6.20
2019-01-06T17:54:08.734Z,6.83
2019-01-06T17:56:53.273Z,7.83
2019-01-06T17:59:41.659Z,5.00
2019-01-06T18:02:30.656Z,5.77
2019-01-06T18:05:18.775Z,9.27
2019-01-06T18:08:08.864Z,6.73
2019-01-06T18:10:57.010Z,6.30
2019-01-06T18:13:47.214Z,6.33
2019-01-06T18:16:37.376Z,8.40
2019-01-06T18:19:25.594Z,7.03
2019-01-06T18:22:13.708Z,7.37
2019-01-06T18:25:13.300Z,7.77
2019-01-06T18:28:01.425Z,6.93
2019-01-06T18:30:49.892Z,6.83
2019-01-06T18:33:38.013Z,6.80
2019-01-06T18:39:07.331Z,7.37
2019-01-06T18:41:55.458Z,8.80
2019-01-06T18:44:43.686Z,5.50
2019-01-06T18:47:32.203Z,7.20
2019-01-06T18:50:20.605Z,8.13
2019-01-06T18:53:08.719Z,7.37
2019-01-06T18:59:04.967Z,6.70
2019-01-06T19:01:58.982Z,9.30
2019-01-06T19:04:43.506Z,7.33
2019-01-06T19:07:31.747Z,7.60
2019-01-06T19:10:20.265Z,8.87
2019-01-06T19:13:10.834Z,6.83
2019-01-06T19:15:59.112Z,7.60
2019-01-06T19:18:47.395Z,8.03
2019-01-06T19:21:35.595Z,7.77
2019-01-06T19:24:23.759Z,11.30
2019-01-06T19:27:11.962Z,9.30
2019-01-06T19:30:00.201Z,10.60
2019-01-06T19:32:48.398Z,8.77
2019-01-06T19:35:36.553Z,9.40
2019-01-06T19:38:24.794Z,9.10
2019-01-06T19:44:08.492Z,7.40
2019-01-06T19:46:56.622Z,9.70
2019-01-06T19:49:45.344Z,6.70
2019-01-06T19:52:33.481Z,9.57
2019-01-06T19:55:21.837Z,6.97
2019-01-06T19:58:09.996Z,11.70
2019-01-06T20:00:58.328Z,8.07
2019-01-06T20:03:46.446Z,7.83
2019-01-06T20:06:34.970Z,8.27
2019-01-06T20:12:31.978Z,8.10
2019-01-06T20:15:20.101Z,7.30
2019-01-06T20:18:08.900Z,9.10
2019-01-06T20:20:57.286Z,7.47
2019-01-06T20:23:46.548Z,5.90
2019-01-06T20:26:34.693Z,8.30
2019-01-06T20:29:23.100Z,6.23
2019-01-06T20:32:11.232Z,6.87
2019-01-06T20:34:59.804Z,7.70
2019-01-06T20:37:48.861Z,7.57
2019-01-06T20:40:37.161Z,4.73
2019-01-06T20:43:25.340Z,7.17
2019-01-06T20:46:13.683Z,7.40
2019-01-06T20:49:01.797Z,6.73
2019-01-06T20:51:50.122Z,7.07
2019-01-06T20:54:38.255Z,6.83
2019-01-06T20:57:26.613Z,6.60
2019-01-06T21:00:14.745Z,6.17
2019-01-06T21:03:03.654Z,7.07
2019-01-06T21:05:51.781Z,6.07
2019-01-06T21:08:40.185Z,7.77
2019-01-06T21:11:28.349Z,6.77
2019-01-06T21:14:16.614Z,6.67
2019-01-06T21:17:04.736Z,7.77
2019-01-06T21:19:53.036Z,7.47
2019-01-06T21:22:42.173Z,6.87
2019-01-06T21:25:31.604Z,8.70
2019-01-06T21:28:19.732Z,5.80
2019-01-06T21:31:08.045Z,7.37
2019-01-06T21:33:56.215Z,7.43
2019-01-06T21:36:45.536Z,6.93
2019-01-06T21:39:33.677Z,6.03
2019-01-06T21:42:20.317Z,5.90
2019-01-06T21:45:08.449Z,7.10
2019-01-06T21:47:56.712Z,6.73
2019-01-06T21:50:44.834Z,6.40
2019-01-06T21:53:33.522Z,6.20
2019-01-06T21:56:21.637Z,7.13
2019-01-06T21:59:10.255Z,9.43
2019-01-06T22:01:58.390Z,5.43
2019-01-06T22:07:41.557Z,6.17
2019-01-06T22:10:29.856Z,6.87
2019-01-06T22:13:18.119Z,6.57
2019-01-06T22:16:06.223Z,7.33
2019-01-06T22:18:54.634Z,6.87
2019-01-06T22:21:42.744Z,6.13
2019-01-06T22:24:50.747Z,5.10
2019-01-06T22:27:38.900Z,6.03
2019-01-06T22:30:46.591Z,6.57
2019-01-06T22:33:34.758Z,6.80
2019-01-06T22:36:23.150Z,5.90
2019-01-06T22:39:11.277Z,6.20
2019-01-06T22:41:59.742Z,6.30
2019-01-06T22:44:39.109Z,7.73
2019-01-06T22:47:27.456Z,7.03
2019-01-06T22:50:15.575Z,4.90
2019-01-06T22:53:05.006Z,6.50
2019-01-06T22:55:53.129Z,4.13
2019-01-06T22:58:41.605Z,8.00
2019-01-06T23:01:48.986Z,5.37
2019-01-06T23:04:37.345Z,5.37
2019-01-06T23:07:25.492Z,3.47
2019-01-06T23:10:08.031Z,5.27
2019-01-06T23:12:56.240Z,6.90
2019-01-06T23:15:44.822Z,7.13
2019-01-06T23:18:32.952Z,4.97
2019-01-06T23:21:13.203Z,5.53
2019-01-06T23:24:01.319Z,6.80
2019-01-06T23:26:49.653Z,6.60
2019-01-06T23:29:37.776Z,6.47
2019-01-06T23:32:26.278Z,6.73
2019-01-06T23:35:14.391Z,8.33
2019-01-06T23:38:02.643Z,7.43
2019-01-06T23:40:50.767Z,6.13
2019-01-06T23:43:39.105Z,6.87
2019-01-06T23:46:27.470Z,7.83
2019-01-06T23:49:15.885Z,7.60
2019-01-06T23:52:03.978Z,7.17
2019-01-06T23:54:52.218Z,7.93
2019-01-06T23:57:31.161Z,7.60
